• Join FlightAware (Why Join?)
  • Login
  • US Flag 
Gobble Gobble! 
06:46PM EST


 

Airport Tracker/Info


-or-


 

Live Flight TrackerFlight Track Log ✈ RPA3228 ✈ 07-Sep-2013 ✈ KBNA - KDCA

Flight Track Log - Related Links

Times and Time Zones

All times are in EDT time to prevent confusion due to time zone crossing. See the RPA3228 flight status page for this flight to view local times or setup timezone preferences in your user account.

Time Position Orientation Groundspeed Altitude Reporting Facility
EDT Latitude Longitude Course Direction KTS MPH feet Rate Location/Type
07:42AM 36.1333 -86.6833 56° Northeast 157 181 1,300  Level Nashville TRACON
07:43AM 36.1667 -86.7333 310° West 201 231 3,300 2,520 Climbing Nashville TRACON
07:44AM 36.1833 -86.6667 73° East 286 329 6,100 3,300 Climbing Nashville TRACON
07:45AM 36.2921 -86.1734 68° East  Level Estimated
07:45AM 36.1892 -86.5278 87° East 298 343 11,800  Level Memphis Center
07:46AM 36.3336 -86.0469 50° Northeast  Level Estimated
07:46AM 36.1900 -86.4225 89° East 306 352 15,000  Level Memphis Center
07:47AM 36.3751 -85.9203 56° Northeast  Level Estimated
07:47AM 36.1944 -86.3039 87° East 306 352 17,900  Level Memphis Center
07:48AM 36.1967 -86.1856 89° East 320 368 20,700 2,700 Climbing Memphis Center
07:49AM 36.2053 -86.0642 85° East 336 387 23,400 2,580 Climbing Memphis Center
07:50AM 36.2514 -85.9561 62° Northeast 347 399 25,900 2,220 Climbing Memphis Center
07:52AM 36.3278 -85.7856 61° Northeast 381 438 29,000 2,160 Climbing Indianapolis Center
07:53AM 36.3819 -85.6733 59° Northeast 379 436 31,500 2,340 Climbing Indianapolis Center
07:54AM 36.4344 -85.5639 59° Northeast 370 426 33,800 1,680 Climbing Indianapolis Center
07:55AM 36.4839 -85.4567 60° Northeast 359 413 35,000 540 Climbing Indianapolis Center
07:56AM 36.5361 -85.3456 60° Northeast 368 423 35,000  Level Indianapolis Center
07:57AM 36.5889 -85.2344 59° Northeast 371 427 35,000  Level Indianapolis Center
07:58AM 36.6347 -85.1186 64° Northeast 372 428 35,000  Level Indianapolis Center
07:59AM 36.6708 -84.9964 70° East 373 429 35,000  Level Indianapolis Center
08:00AM 36.7072 -84.8742 70° East 374 430 35,000  Level Indianapolis Center
08:01AM 36.7456 -84.7525 69° East 375 432 35,000  Level Indianapolis Center
08:02AM 36.7811 -84.6283 70° East 378 435 35,000  Level Indianapolis Center
08:03AM 36.8189 -84.5069 69° East 373 429 35,000  Level Indianapolis Center
08:04AM 36.8556 -84.3839 70° East 377 434 35,000  Level Indianapolis Center
08:05AM 36.8989 -84.2431 69° East 372 428 35,000  Level Indianapolis Center
08:06AM 36.9353 -84.1208 70° East 374 430 35,000  Level Indianapolis Center
08:07AM 36.9703 -83.9986 70° East 373 429 35,000  Level Indianapolis Center
08:08AM 37.0083 -83.8764 69° East 375 432 35,000  Level Indianapolis Center
08:09AM 37.0456 -83.7525 69° East 381 438 35,000  Level Indianapolis Center
08:10AM 37.0808 -83.6289 70° East 379 436 35,000  Level Indianapolis Center
08:11AM 37.1178 -83.5061 69° East 378 435 35,000  Level Indianapolis Center
08:12AM 37.1536 -83.3828 70° East 377 434 35,000  Level Indianapolis Center
08:13AM 37.1897 -83.2569 70° East 381 438 35,000  Level Indianapolis Center
08:14AM 37.2256 -83.1317 70° East 379 436 35,000  Level Indianapolis Center
08:15AM 37.2619 -83.0058 70° East 380 437 35,000  Level Indianapolis Center
08:16AM 37.2978 -82.8789 70° East 382 440 35,000  Level Indianapolis Center
08:17AM 37.3347 -82.7517 70° East 385 443 35,000  Level Indianapolis Center
08:18AM 37.3700 -82.6253 71° East 383 441 35,000  Level Indianapolis Center
08:19AM 37.4053 -82.4989 71° East 382 440 35,000  Level Indianapolis Center
08:20AM 37.4400 -82.3736 71° East 379 436 35,000  Level Indianapolis Center
08:21AM 37.4944 -82.2631 58° Northeast 373 429 35,000  Level Indianapolis Center
08:22AM 37.5867 -82.2089 25° Northeast 363 418 35,000  Level Indianapolis Center
08:23AM 37.6953 -82.1475 24° Northeast 365 420 35,000  Level Indianapolis Center
08:24AM 37.7847 -82.0914 26° Northeast 362 417 35,000  Level Indianapolis Center
08:26AM 37.8131 -81.9692 74° East 377 434 35,000  Level Indianapolis Center
08:27AM 37.8081 -81.8353 93° East 379 436 35,000  Level Indianapolis Center
08:28AM 37.8033 -81.7011 93° East 381 438 35,000  Level Indianapolis Center
08:29AM 37.7975 -81.5658 93° East 384 442 35,000  Level Indianapolis Center
08:30AM 37.7931 -81.4300 92° East 381 438 35,000  Level Indianapolis Center
08:31AM 37.7872 -81.2992 93° East 384 442 35,000  Level Indianapolis Center
08:32AM 37.7814 -81.1675 93° East 384 442 35,000  Level Indianapolis Center
08:33AM 37.8158 -81.0231 73° East 373 429 35,000  Level Indianapolis Center
08:34AM 37.8581 -80.9072 65° Northeast 371 427 35,000  Level Indianapolis Center
08:35AM 37.8986 -80.7897 66° East 366 421 35,000  Level Indianapolis Center
08:36AM 37.9392 -80.6714 66° East 366 421 35,000  Level Indianapolis Center
08:36AM 37.9733 -80.5864 63° Northeast 365 420 35,000  Level Washington Center
08:37AM 38.0158 -80.4681 65° Northeast 365 420 35,000  Level Washington Center
08:38AM 38.0514 -80.3622 67° East 365 420 35,000  Level Washington Center
08:39AM 38.0956 -80.2464 64° Northeast 365 420 35,000  Level Washington Center
08:40AM 38.1356 -80.1272 67° East 365 420 35,000  Level Washington Center
08:41AM 38.1775 -80.0108 65° Northeast 365 420 35,000  Level Washington Center
08:42AM 38.2219 -79.8789 67° East 365 420 35,000  Level Washington Center
08:43AM 38.2656 -79.7622 65° Northeast 371 427 35,000  Level Washington Center
08:44AM 38.3072 -79.6428 66° East 371 427 35,000  Level Washington Center
08:45AM 38.3486 -79.5233 66° East 371 427 35,000 -600 Level Washington Center
08:46AM 38.3881 -79.4061 67° East 371 427 33,800 -1,560 Descending Washington Center
08:47AM 38.4228 -79.2967 68° East 366 421 31,900 -1,980 Descending Washington Center
08:48AM 38.4497 -79.1603 76° East 371 427 29,900 -2,040 Descending Washington Center
08:49AM 38.4747 -79.0208 77° East 385 443 27,800 -1,920 Descending Washington Center
08:50AM 38.4978 -78.8628 79° East 402 463 26,100 -1,980 Descending Washington Center
08:51AM 38.5203 -78.7231 78° East 411 473 24,000 -1,860 Descending Washington Center
08:52AM 38.5403 -78.5992 78° East 406 467 22,500 -1,260 Descending Washington Center
08:53AM 38.5622 -78.4592 79° East 401 461 21,500 -1,200 Descending Washington Center
08:54AM 38.5842 -78.3247 78° East 396 456 20,200 -1,500 Descending Washington Center
08:55AM 38.6142 -78.1956 73° East 386 444 18,500 -1,680 Descending Washington Center
08:56AM 38.6522 -78.0747 68° East 372 428 16,900 -1,740 Descending Washington Center
08:57AM 38.6900 -77.9589 67° East 361 415 15,100 -1,920 Descending Washington Center
08:58AM 38.7297 -77.8403 67° East 337 388 13,100 -1,680 Descending Washington Center
08:59AM 38.7833 -77.7567 51° Northeast 314 361 11,800 -1,260 Descending Washington Center
09:00AM 38.8328 -77.6728 53° Northeast 301 346 10,700 -1,260 Descending Washington Center
09:01AM 38.8678 -77.5753 65° Northeast 290 334 9,400 -1,140 Descending Washington Center
09:02AM 38.9006 -77.4800 66° East 285 328 8,400 -1,260 Descending Washington Center
09:04AM 38.8667 -77.3667 111° Southeast 290 334 6,700 -1,200 Descending Potomac TRACON
09:05AM 38.8500 -77.2833 104° East 241 277 6,000 -420 Descending Potomac TRACON
09:06AM 38.8167 -77.2167 123° Southeast 212 244 6,000  Level Potomac TRACON
09:06AM 38.7833 -77.1667 131° Southeast 214 246 6,000  Level Potomac TRACON
09:07AM 38.7500 -77.1167 131° Southeast 221 254 6,000  Level Potomac TRACON
09:08AM 38.7000 -77.1167 180° South 212 244 6,000  Level Potomac TRACON
09:09AM 38.6500 -77.1000 165° South 215 247 6,000  Level Potomac TRACON
09:10AM 38.5833 -77.1000 180° South 218 251 6,000 -600 Level Potomac TRACON
09:11AM 38.5833 -77.0333 90° East 194 223 4,900 -1,260 Descending Potomac TRACON
09:12AM 38.6500 -77.0167 11° North 179 206 3,500 -1,440 Descending Potomac TRACON
09:13AM 38.7000 -77.0167 360° North 183 211 2,100 -960 Descending Potomac TRACON
09:14AM 38.7500 -77.0333 345° North 181 208 1,600 -540 Descending Potomac TRACON
09:15AM 38.7833 -77.0333 360° North 162 186 1,100 -600 Descending Potomac TRACON
09:16AM 38.8333 -77.0333 360° North 123 142 400 -720 Descending Potomac TRACON